createdAt,value
2023-04-30T00:00:51.874Z,10.35
2023-04-30T00:05:13.971Z,10.68
2023-04-30T00:09:36.325Z,10.20
2023-04-30T00:13:58.697Z,10.30
2023-04-30T00:18:20.502Z,10.75
2023-04-30T00:22:42.731Z,10.55
2023-04-30T00:27:04.998Z,11.88
2023-04-30T00:31:27.315Z,11.43
2023-04-30T00:35:49.466Z,10.55
2023-04-30T00:40:12.485Z,11.25
2023-04-30T00:44:34.636Z,10.00
2023-04-30T00:48:57.016Z,11.02
2023-04-30T00:53:20.867Z,10.82
2023-04-30T00:57:43.555Z,10.50
2023-04-30T01:02:05.998Z,9.48
2023-04-30T01:06:28.333Z,9.48
2023-04-30T01:11:17.863Z,9.63
2023-04-30T01:16:03.529Z,8.82
2023-04-30T01:20:28.402Z,8.18
2023-04-30T01:25:34.849Z,8.65
2023-04-30T01:29:58.236Z,8.25
2023-04-30T01:34:21.192Z,8.45
2023-04-30T01:39:20.394Z,8.77
2023-04-30T01:44:15.878Z,9.23
2023-04-30T01:48:54.852Z,9.48
2023-04-30T01:53:44.216Z,10.30
2023-04-30T01:58:10.779Z,8.55
2023-04-30T02:02:33.505Z,9.30
2023-04-30T02:06:56.216Z,9.80
2023-04-30T02:11:18.455Z,9.10
2023-04-30T02:15:40.841Z,8.30
2023-04-30T02:20:03.763Z,8.10
2023-04-30T02:24:25.768Z,7.32
2023-04-30T02:28:48.207Z,6.53
2023-04-30T02:33:12.652Z,6.00
2023-04-30T02:37:34.948Z,6.75
2023-04-30T02:41:57.550Z,6.40
2023-04-30T02:46:19.520Z,6.68
2023-04-30T02:50:41.497Z,7.25
2023-04-30T02:55:04.507Z,6.25
2023-04-30T02:59:27.433Z,5.32
2023-04-30T03:03:49.748Z,11.02
2023-04-30T03:08:11.772Z,6.82
2023-04-30T03:12:34.187Z,5.63
2023-04-30T03:16:56.727Z,5.45
2023-04-30T03:21:19.229Z,6.07
2023-04-30T03:25:41.317Z,5.60
2023-04-30T03:30:03.782Z,5.45
2023-04-30T03:34:26.094Z,4.97
2023-04-30T03:38:48.193Z,5.45
2023-04-30T03:43:10.655Z,5.50
2023-04-30T03:47:33.457Z,6.10
2023-04-30T03:51:55.380Z,5.30
2023-04-30T03:56:18.034Z,5.28
2023-04-30T06:24:03.877Z,3.65
2023-04-30T06:28:26.356Z,3.80
2023-04-30T06:32:48.683Z,3.70
2023-04-30T06:37:10.876Z,4.20
2023-04-30T06:41:32.994Z,3.90
2023-04-30T06:45:54.799Z,3.60
2023-04-30T06:50:16.880Z,4.90
2023-04-30T06:54:39.164Z,4.50
2023-04-30T06:59:01.263Z,4.25
2023-04-30T07:03:23.573Z,4.95
2023-04-30T07:07:46.182Z,4.00
2023-04-30T07:12:08.187Z,4.43
2023-04-30T07:16:32.586Z,3.88
2023-04-30T07:20:55.644Z,5.10
2023-04-30T07:25:18.051Z,4.25
2023-04-30T07:29:40.304Z,5.03
2023-04-30T07:34:02.366Z,4.10
2023-04-30T07:38:25.455Z,4.05
2023-04-30T07:42:47.913Z,4.03
2023-04-30T07:47:10.090Z,4.13
2023-04-30T07:51:33.100Z,3.67
2023-04-30T07:55:55.448Z,4.18
2023-04-30T08:00:17.826Z,3.83
2023-04-30T08:04:40.211Z,4.03
2023-04-30T08:09:02.322Z,3.65
2023-04-30T08:13:24.672Z,3.78
2023-04-30T08:17:46.724Z,3.42
2023-04-30T08:22:08.850Z,3.42
2023-04-30T08:26:31.104Z,3.33
2023-04-30T08:30:53.156Z,3.30
2023-04-30T08:35:17.167Z,3.38
2023-04-30T08:39:39.509Z,3.63
2023-04-30T08:44:05.679Z,3.03
2023-04-30T08:48:29.849Z,3.33
2023-04-30T08:52:52.121Z,2.78
2023-04-30T08:57:14.199Z,2.78
2023-04-30T09:01:36.238Z,2.50
2023-04-30T09:05:58.483Z,2.50
2023-04-30T09:10:23.080Z,2.63
2023-04-30T09:15:04.674Z,3.10
2023-04-30T09:19:30.397Z,2.55
2023-04-30T09:24:06.399Z,2.72
2023-04-30T09:28:29.407Z,2.50
2023-04-30T09:32:57.692Z,2.88
2023-04-30T09:37:19.926Z,2.53
2023-04-30T09:41:42.911Z,2.58
2023-04-30T09:46:05.030Z,2.10
2023-04-30T09:50:27.218Z,2.63
2023-04-30T09:54:49.732Z,2.80
2023-04-30T09:59:14.447Z,1.88
2023-04-30T10:03:43.051Z,2.90
2023-04-30T10:08:21.429Z,2.88
2023-04-30T10:12:54.569Z,2.67
2023-04-30T10:17:18.648Z,2.22
2023-04-30T10:21:43.034Z,2.58
2023-04-30T10:26:05.811Z,2.70
2023-04-30T10:30:28.346Z,3.05
2023-04-30T10:35:21.332Z,3.08
2023-04-30T10:39:43.587Z,2.22
2023-04-30T10:44:08.113Z,2.63
2023-04-30T10:48:33.665Z,3.40
2023-04-30T10:53:06.506Z,2.42
2023-04-30T10:57:30.897Z,2.70
2023-04-30T11:02:02.304Z,2.70
2023-04-30T11:06:26.829Z,2.83
2023-04-30T11:11:01.848Z,2.38
2023-04-30T11:15:48.860Z,1.90
2023-04-30T11:20:14.922Z,2.38
2023-04-30T11:25:00.209Z,2.58
2023-04-30T11:29:23.805Z,2.97
2023-04-30T11:33:46.579Z,2.92
2023-04-30T11:38:09.870Z,3.67
2023-04-30T11:42:34.911Z,3.10
2023-04-30T11:46:57.072Z,3.20
2023-04-30T11:51:27.211Z,3.30
2023-04-30T11:55:49.328Z,3.83
2023-04-30T12:00:15.222Z,3.30
2023-04-30T12:04:38.074Z,3.17
2023-04-30T12:09:04.293Z,3.55
2023-04-30T12:13:26.355Z,3.25
2023-04-30T12:17:48.911Z,3.20
2023-04-30T12:22:11.152Z,2.92
2023-04-30T12:26:39.438Z,5.05
2023-04-30T12:31:02.514Z,3.30
2023-04-30T12:35:28.331Z,3.28
2023-04-30T12:39:50.612Z,2.83
2023-04-30T12:44:23.912Z,3.30
2023-04-30T12:48:46.007Z,3.63
2023-04-30T12:53:08.893Z,2.92
2023-04-30T12:57:31.733Z,2.90
2023-04-30T13:01:55.309Z,3.40
2023-04-30T13:06:18.009Z,2.72
2023-04-30T13:10:40.443Z,11.77
2023-04-30T13:15:04.089Z,2.38
2023-04-30T13:19:26.647Z,2.70
2023-04-30T13:23:53.744Z,3.10
2023-04-30T13:28:17.112Z,2.80
2023-04-30T13:32:39.551Z,2.72
2023-04-30T13:37:01.873Z,2.83
2023-04-30T13:41:23.856Z,2.30
2023-04-30T13:45:45.817Z,2.20
2023-04-30T13:50:10.685Z,2.75
2023-04-30T13:54:33.218Z,2.33
2023-04-30T13:58:55.222Z,2.15
2023-04-30T14:03:18.597Z,2.65
2023-04-30T14:07:40.753Z,1.80
2023-04-30T14:12:02.895Z,2.50
2023-04-30T14:16:26.221Z,2.05
2023-04-30T14:20:49.127Z,2.15
2023-04-30T14:25:12.046Z,2.40
2023-04-30T14:29:34.276Z,2.03
2023-04-30T14:33:56.897Z,2.10
2023-04-30T14:38:19.126Z,1.98
2023-04-30T14:42:41.149Z,2.20
2023-04-30T14:47:04.336Z,2.10
2023-04-30T14:51:26.564Z,2.33
2023-04-30T14:55:49.272Z,2.20
2023-04-30T15:00:12.449Z,2.60
2023-04-30T15:04:34.508Z,2.30
2023-04-30T15:08:56.709Z,2.33
2023-04-30T15:13:18.978Z,2.40
2023-04-30T15:17:41.656Z,1.85
2023-04-30T15:22:03.582Z,1.85
2023-04-30T15:26:26.125Z,2.45
2023-04-30T15:30:47.980Z,2.47
2023-04-30T15:35:10.580Z,2.28
2023-04-30T15:39:32.944Z,2.30
2023-04-30T15:43:54.912Z,2.58
2023-04-30T15:48:17.137Z,2.33
2023-04-30T15:52:40.203Z,2.83
2023-04-30T15:57:04.496Z,2.67
2023-04-30T16:01:26.657Z,2.15
2023-04-30T16:05:49.081Z,2.42
2023-04-30T16:10:11.953Z,2.75
2023-04-30T16:14:34.364Z,2.53
2023-04-30T16:18:56.814Z,3.60
2023-04-30T16:23:19.021Z,2.85
2023-04-30T16:27:43.475Z,2.75
2023-04-30T16:32:06.050Z,3.10
2023-04-30T16:36:28.241Z,2.65
2023-04-30T16:40:51.023Z,3.13
2023-04-30T16:45:13.407Z,2.53
2023-04-30T16:49:35.830Z,2.83
2023-04-30T16:53:58.106Z,2.20
2023-04-30T16:58:20.271Z,2.60
2023-04-30T17:02:45.728Z,1.77
2023-04-30T17:07:07.906Z,1.98
2023-04-30T17:11:31.049Z,1.92
2023-04-30T17:15:56.557Z,2.00
2023-04-30T17:20:18.973Z,1.90
2023-04-30T17:24:40.846Z,1.70
2023-04-30T17:29:02.865Z,2.00
2023-04-30T17:33:26.799Z,1.90
2023-04-30T17:37:49.296Z,6.85
2023-04-30T17:42:13.308Z,2.53
2023-04-30T17:46:35.905Z,3.10
2023-04-30T17:50:58.271Z,1.90
2023-04-30T17:55:20.329Z,1.95
2023-04-30T17:59:42.649Z,2.00
2023-04-30T18:04:08.887Z,1.90
2023-04-30T18:08:31.342Z,2.08
2023-04-30T18:12:53.468Z,2.25
2023-04-30T18:17:15.569Z,12.25
2023-04-30T18:21:37.768Z,2.38
2023-04-30T18:26:01.552Z,3.13
2023-04-30T18:30:23.829Z,2.67
2023-04-30T18:34:46.327Z,3.90
2023-04-30T18:39:09.374Z,4.30
2023-04-30T18:43:31.866Z,6.10
2023-04-30T18:47:54.222Z,5.35
2023-04-30T18:52:16.664Z,5.38
2023-04-30T18:56:39.213Z,4.88
2023-04-30T19:01:01.502Z,6.57
2023-04-30T19:05:23.927Z,5.93
2023-04-30T19:09:48.525Z,6.38
2023-04-30T19:14:10.756Z,7.07
2023-04-30T19:18:35.239Z,11.15
2023-04-30T19:22:57.627Z,8.88
2023-04-30T19:27:19.736Z,7.78
2023-04-30T19:31:41.996Z,9.02
2023-04-30T19:36:04.998Z,11.30
2023-04-30T19:40:27.088Z,13.25
2023-04-30T19:44:53.291Z,9.00
2023-04-30T19:49:16.548Z,13.50
2023-04-30T19:53:40.529Z,16.13
2023-04-30T19:58:05.029Z,18.92
2023-04-30T20:02:27.550Z,15.60
2023-04-30T20:06:56.980Z,18.75
2023-04-30T20:11:21.310Z,18.88
2023-04-30T20:15:44.265Z,20.52
2023-04-30T20:20:07.299Z,18.48
2023-04-30T20:24:30.295Z,19.50
2023-04-30T20:28:52.831Z,18.02
2023-04-30T20:33:15.439Z,22.60
2023-04-30T20:37:38.192Z,18.42
2023-04-30T20:42:01.682Z,18.77
2023-04-30T20:46:25.057Z,19.38
2023-04-30T20:50:47.712Z,17.48
2023-04-30T20:55:10.818Z,18.73
2023-04-30T20:59:35.094Z,20.75
2023-04-30T21:03:57.350Z,20.20
2023-04-30T21:08:19.457Z,22.40
2023-04-30T21:12:42.262Z,16.05
2023-04-30T21:17:04.994Z,14.77
2023-04-30T21:21:27.715Z,13.55
2023-04-30T21:25:53.928Z,12.50
2023-04-30T21:30:17.239Z,11.43
2023-04-30T21:34:39.280Z,12.02
2023-04-30T21:39:01.603Z,8.75
2023-04-30T21:43:24.194Z,9.65
2023-04-30T21:47:48.260Z,8.85
2023-04-30T21:52:10.337Z,7.68
2023-04-30T21:56:32.580Z,8.27
2023-04-30T22:00:55.426Z,8.77
2023-04-30T22:05:19.227Z,9.75
2023-04-30T22:09:41.316Z,11.10
2023-04-30T22:14:04.387Z,11.80
2023-04-30T22:18:26.486Z,12.27
2023-04-30T22:22:48.525Z,13.02
2023-04-30T22:27:10.445Z,12.38
2023-04-30T22:31:32.507Z,13.32
2023-04-30T22:35:55.927Z,13.70
2023-04-30T22:40:18.405Z,13.18
2023-04-30T22:44:40.492Z,11.73
2023-04-30T22:49:03.069Z,11.15
2023-04-30T22:53:25.860Z,11.88
2023-04-30T22:57:48.133Z,11.70
2023-04-30T23:02:10.166Z,11.48
2023-04-30T23:06:35.590Z,11.15
2023-04-30T23:10:57.571Z,12.05
2023-04-30T23:15:19.732Z,11.07
2023-04-30T23:19:41.889Z,11.63
2023-04-30T23:24:04.490Z,11.43
2023-04-30T23:28:27.442Z,11.57
2023-04-30T23:32:49.529Z,12.43
2023-04-30T23:37:11.869Z,11.93
2023-04-30T23:41:33.850Z,12.27
2023-04-30T23:46:00.348Z,12.80
2023-04-30T23:50:22.730Z,13.38
2023-04-30T23:54:44.889Z,13.50
2023-04-30T23:59:07.270Z,13.57
